Time;durP1;ratioP1;P1;durP2;ratioP2;P2;SDS_P1;SDS_P2;PMS_P1;PMS_P2;Temp;Humidity;BMP_temperature;BMP_pressure;BME280_temperature;BME280_humidity;BME280_pressure;Samples;Min_cycle;Max_cycle;Signal;HPM_P1;HPM_P2
2022/03/24 00:01:29;;;;;;;15.15;10.30;;;;;;;9.76;32.16;100078.19;5065013;28;20123;-72
2022/03/24 00:04:02;;;;;;;13.13;9.73;;;;;;;9.73;32.27;100071.25;5066062;28;20285;-73
2022/03/24 00:06:34;;;;;;;15.75;10.10;;;;;;;9.74;32.07;100066.81;5066061;28;20040;-72
2022/03/24 00:09:07;;;;;;;12.90;9.80;;;;;;;9.75;31.88;100069.41;5065354;28;20112;-71
2022/03/24 00:11:43;;;;;;;12.98;8.75;;;;;;;9.68;32.09;100059.97;5049200;28;20041;-71
2022/03/24 00:14:16;;;;;;;12.20;8.48;;;;;;;9.65;32.06;100056.59;5066224;28;20052;-72
2022/03/24 00:16:49;;;;;;;16.08;10.20;;;;;;;9.08;32.18;99991.78;5065263;28;20041;-71
2022/03/24 00:19:22;;;;;;;18.63;8.93;;;;;;;9.51;32.37;100052.72;5066041;28;20044;-72
2022/03/24 00:21:57;;;;;;;20.63;8.13;;;;;;;9.17;32.02;100042.53;5065860;28;20045;-72
2022/03/24 00:24:30;;;;;;;12.82;8.95;;;;;;;9.53;31.85;100052.66;5066270;28;20040;-71
2022/03/24 00:27:04;;;;;;;13.43;8.43;;;;;;;9.56;31.84;100044.59;5064730;28;20044;-72
2022/03/24 00:29:36;;;;;;;12.93;8.70;;;;;;;9.48;31.85;100036.97;5065363;28;20083;-71
2022/03/24 00:32:09;;;;;;;13.88;8.45;;;;;;;9.46;32.35;100035.28;5065550;28;20052;-72
2022/03/24 00:34:39;;;;;;;13.68;8.40;;;;;;;9.42;32.18;100044.28;5065655;28;20037;-72
2022/03/24 00:37:09;;;;;;;10.45;8.25;;;;;;;9.36;32.43;100037.41;5065531;28;20041;-72
2022/03/24 00:39:40;;;;;;;10.52;8.30;;;;;;;8.60;32.61;99953.94;5048766;28;20049;-72
2022/03/24 00:42:13;;;;;;;13.45;9.90;;;;;;;9.03;32.35;100006.94;5065593;28;20083;-71
2022/03/24 00:44:45;;;;;;;14.32;9.70;;;;;;;7.75;32.77;99838.28;5065301;28;20045;-72
2022/03/24 00:47:15;;;;;;;12.98;8.30;;;;;;;8.93;32.50;100001.16;5065879;28;20041;-71
2022/03/24 00:49:47;;;;;;;11.82;8.38;;;;;;;9.11;32.67;100045.41;5065994;28;20040;-71
2022/03/24 00:52:16;;;;;;;12.90;8.98;;;;;;;9.15;32.63;100054.94;5065592;28;20209;-71
2022/03/24 00:54:47;;;;;;;13.63;8.38;;;;;;;9.13;32.97;100048.84;5065793;28;20300;-71
2022/03/24 00:57:17;;;;;;;10.98;9.18;;;;;;;8.80;33.03;99991.97;5065491;28;20068;-71
2022/03/24 00:59:47;;;;;;;15.45;8.52;;;;;;;9.02;33.16;100035.19;5065458;28;20037;-72
2022/03/24 01:02:18;;;;;;;12.35;9.27;;;;;;;8.99;33.10;100036.16;5078195;28;20066;-72
2022/03/24 01:04:48;;;;;;;12.57;8.80;;;;;;;8.94;33.03;100035.47;5068323;28;20043;-76
2022/03/24 01:07:17;;;;;;;13.95;8.75;;;;;;;8.19;33.20;99901.78;5085835;28;20036;-71
2022/03/24 01:09:48;;;;;;;10.60;8.40;;;;;;;8.94;33.43;100029.31;5068282;28;20036;-72
2022/03/24 01:12:19;;;;;;;12.73;9.27;;;;;;;8.92;33.44;100028.50;5085812;28;20032;-72
2022/03/24 01:14:48;;;;;;;12.80;9.27;;;;;;;8.94;33.10;100024.91;5085632;28;20072;-72
2022/03/24 01:17:18;;;;;;;10.13;8.48;;;;;;;8.92;33.82;100024.09;5085892;28;20068;-72
2022/03/24 01:19:50;;;;;;;12.93;9.10;;;;;;;8.90;33.40;100017.13;5068473;28;20028;-72
2022/03/24 01:22:18;;;;;;;14.75;9.00;;;;;;;7.98;33.76;99869.97;5067933;28;20051;-72
2022/03/24 01:24:48;;;;;;;12.02;8.88;;;;;;;8.85;33.48;100012.03;5067812;28;20318;-71
2022/03/24 01:27:20;;;;;;;13.00;8.95;;;;;;;8.78;33.87;100013.16;5085184;28;20036;-71
2022/03/24 01:29:50;;;;;;;17.17;9.98;;;;;;;8.79;33.75;100011.41;5067445;28;20301;-72
2022/03/24 01:32:19;;;;;;;15.40;9.10;;;;;;;8.48;33.81;100014.31;5067414;28;20212;-73
2022/03/24 01:34:50;;;;;;;13.40;9.30;;;;;;;7.66;33.80;99823.66;5085191;28;20056;-72
2022/03/24 01:37:19;;;;;;;13.48;10.63;;;;;;;3.91;34.06;99182.13;5067283;28;20232;-72
2022/03/24 01:39:49;;;;;;;12.98;8.15;;;;;;;8.81;33.86;100010.41;5086726;28;20259;-72
2022/03/24 01:42:21;;;;;;;12.85;8.68;;;;;;;8.85;33.90;100009.38;5071231;28;20245;-72
2022/03/24 01:44:49;;;;;;;15.55;9.63;;;;;;;8.72;34.39;100036.31;5070753;28;20076;-71
2022/03/24 01:47:19;;;;;;;14.68;8.38;;;;;;;8.68;34.01;99999.44;5088890;28;20036;-72
2022/03/24 01:49:50;;;;;;;13.07;8.98;;;;;;;8.32;34.49;99961.16;5088532;28;20047;-71
2022/03/24 01:52:20;;;;;;;15.00;9.38;;;;;;;8.32;34.24;99961.16;5071090;28;20040;-72
2022/03/24 01:54:54;;;;;;;14.98;9.10;;;;;;;8.29;34.33;99959.50;5071056;28;20100;-71
2022/03/24 01:57:29;;;;;;;13.00;8.60;;;;;;;8.58;34.82;100005.97;5088168;28;20048;-71
2022/03/24 02:00:02;;;;;;;13.23;9.27;;;;;;;8.52;35.26;100011.50;5070881;28;20032;-71
2022/03/24 02:02:34;;;;;;;15.32;9.13;;;;;;;8.46;34.35;100003.78;5088163;28;20064;-72
2022/03/24 02:05:07;;;;;;;13.68;10.40;;;;;;;8.48;34.74;100011.66;5088172;28;20057;-72
2022/03/24 02:07:39;;;;;;;15.48;9.45;;;;;;;8.42;35.53;100007.47;5088205;28;20311;-70
2022/03/24 02:10:12;;;;;;;13.80;9.52;;;;;;;8.41;35.04;100000.44;5087980;28;20181;-72
2022/03/24 02:12:46;;;;;;;14.43;9.05;;;;;;;8.49;34.84;100005.47;5087765;28;20044;-72
2022/03/24 02:15:19;;;;;;;16.70;9.70;;;;;;;8.43;35.34;100009.19;5088083;28;20046;-72
2022/03/24 02:17:52;;;;;;;13.50;10.00;;;;;;;8.47;35.34;100020.50;5088058;28;20089;-72
2022/03/24 02:20:28;;;;;;;12.65;9.90;;;;;;;8.43;35.23;100006.53;5087748;28;20044;-72
2022/03/24 02:23:02;;;;;;;12.35;8.82;;;;;;;8.46;35.89;100005.56;5088034;28;20311;-73
2022/03/24 02:25:37;;;;;;;17.30;11.27;;;;;;;8.42;35.25;100011.88;5087920;28;20225;-73
2022/03/24 02:28:10;;;;;;;13.48;9.10;;;;;;;6.99;35.57;99793.44;5070316;28;20036;-72
2022/03/24 02:30:44;;;;;;;10.32;8.30;;;;;;;8.34;35.59;100002.44;5087680;28;20104;-73
2022/03/24 02:33:21;;;;;;;14.57;9.77;;;;;;;8.38;36.61;100000.56;5070337;28;20052;-73
2022/03/24 02:35:53;;;;;;;15.15;9.15;;;;;;;8.38;35.40;100003.19;5070259;28;20040;-73
2022/03/24 02:38:27;;;;;;;15.45;8.75;;;;;;;8.36;36.09;100007.69;5087648;28;20044;-73
2022/03/24 02:41:00;;;;;;;13.32;9.55;;;;;;;8.32;35.58;100003.41;5087245;28;20099;-72
2022/03/24 02:43:32;;;;;;;12.70;8.82;;;;;;;8.39;35.56;100006.72;5087523;28;20045;-73
2022/03/24 02:46:04;;;;;;;12.38;9.05;;;;;;;8.43;35.34;100003.91;5087730;28;20223;-72
2022/03/24 02:48:36;;;;;;;11.50;9.40;;;;;;;8.40;35.38;100001.38;5087628;28;20056;-72
2022/03/24 02:51:09;;;;;;;12.68;9.40;;;;;;;8.32;35.35;100001.66;5087148;28;20055;-73
2022/03/24 02:53:43;;;;;;;12.15;8.43;;;;;;;8.29;36.14;100003.53;5070861;28;20270;-73
2022/03/24 02:56:15;;;;;;;12.00;8.70;;;;;;;7.68;35.48;99895.69;5071166;28;20059;-73
2022/03/24 02:58:47;;;;;;;10.77;8.65;;;;;;;8.03;35.62;99955.16;5070181;28;20054;-72
2022/03/24 03:01:21;;;;;;;13.48;8.30;;;;;;;8.30;35.35;100008.75;5087035;28;20079;-73
2022/03/24 03:03:53;;;;;;;11.80;7.93;;;;;;;8.27;35.60;100022.06;5086889;28;20094;-73
2022/03/24 03:06:26;;;;;;;12.95;8.88;;;;;;;7.95;35.33;99980.94;5086993;28;20288;-73
2022/03/24 03:09:01;;;;;;;13.57;9.45;;;;;;;8.26;35.71;100016.84;5087033;28;20040;-72
2022/03/24 03:11:33;;;;;;;14.23;9.38;;;;;;;8.26;35.34;100015.06;5069417;28;20048;-72
2022/03/24 03:14:06;;;;;;;9.38;7.90;;;;;;;8.29;35.12;100019.38;5086881;28;20047;-72
2022/03/24 03:16:38;;;;;;;10.68;8.18;;;;;;;6.94;34.96;99774.31;5086895;28;20040;-72
2022/03/24 03:19:11;;;;;;;10.65;7.88;;;;;;;8.40;35.08;100019.00;5086994;28;20346;-72
2022/03/24 03:21:43;;;;;;;9.95;7.50;;;;;;;8.41;34.73;100021.59;5086700;28;20044;-71
2022/03/24 03:24:18;;;;;;;12.15;7.22;;;;;;;8.44;35.17;100021.47;5086782;28;20119;-71
2022/03/24 03:26:52;;;;;;;10.93;7.55;;;;;;;8.52;34.44;100022.06;5086625;28;20292;-71
2022/03/24 03:29:24;;;;;;;8.02;6.35;;;;;;;8.34;34.23;99970.75;5069219;28;20044;-71
2022/03/24 03:31:57;;;;;;;7.90;6.28;;;;;;;8.72;33.92;100016.03;5086127;28;20040;-72
2022/03/24 03:34:30;;;;;;;7.25;5.20;;;;;;;7.38;33.65;99760.47;5086618;28;20142;-72
2022/03/24 03:37:02;;;;;;;8.63;5.50;;;;;;;8.68;33.30;99966.88;5068855;28;20048;-72
2022/03/24 03:39:36;;;;;;;7.13;4.60;;;;;;;8.98;33.38;100012.41;5086279;28;20215;-72
2022/03/24 03:42:09;;;;;;;6.55;4.22;;;;;;;9.08;33.19;100011.16;5086100;28;20044;-72
2022/03/24 03:44:41;;;;;;;6.22;4.30;;;;;;;9.18;32.78;100009.00;5086183;28;20040;-72
2022/03/24 03:47:13;;;;;;;5.70;4.22;;;;;;;9.20;32.74;100021.28;5086115;28;20037;-72
2022/03/24 03:49:44;;;;;;;6.55;4.10;;;;;;;9.22;32.67;100013.28;5086259;28;20035;-72
2022/03/24 03:52:13;;;;;;;6.60;5.15;;;;;;;9.24;32.74;100009.66;5068012;28;20060;-71
2022/03/24 03:54:45;;;;;;;6.78;5.05;;;;;;;7.03;32.78;99634.31;5086041;28;20107;-72
2022/03/24 03:57:14;;;;;;;10.50;6.10;;;;;;;9.18;32.97;100017.81;5086393;28;20196;-72
2022/03/24 03:59:45;;;;;;;8.43;6.65;;;;;;;9.19;33.17;100011.59;5085983;28;20040;-73
2022/03/24 04:02:15;;;;;;;7.05;5.40;;;;;;;7.91;33.26;99839.44;5064453;28;20131;-72
2022/03/24 04:04:47;;;;;;;6.88;5.53;;;;;;;9.12;33.19;100017.19;5065390;28;20048;-71
2022/03/24 04:07:15;;;;;;;7.43;4.80;;;;;;;8.85;33.15;99959.16;5048637;28;20120;-72
2022/03/24 04:09:47;;;;;;;5.97;4.53;;;;;;;9.18;33.19;100017.81;5065056;28;20067;-72
2022/03/24 04:12:15;;;;;;;9.15;6.05;;;;;;;9.19;33.19;100016.00;5064991;28;20059;-72
2022/03/24 04:14:45;;;;;;;5.72;4.63;;;;;;;8.96;33.14;99975.47;5065562;28;20041;-72
2022/03/24 04:17:17;;;;;;;7.30;4.82;;;;;;;9.28;32.72;100020.97;5048848;28;20045;-72
2022/03/24 04:19:46;;;;;;;8.18;5.05;;;;;;;9.06;32.60;99968.03;5065853;28;20055;-72
2022/03/24 04:22:16;;;;;;;6.43;4.22;;;;;;;9.37;32.63;100012.69;5065880;28;20063;-72
2022/03/24 04:24:47;;;;;;;5.70;4.38;;;;;;;9.38;32.77;100016.19;5065617;28;20041;-72
2022/03/24 04:27:16;;;;;;;6.05;5.05;;;;;;;9.42;32.54;100016.03;5065067;28;20060;-72
2022/03/24 04:29:46;;;;;;;7.13;4.53;;;;;;;9.45;32.45;100017.69;5064844;28;20037;-72
2022/03/24 04:32:17;;;;;;;7.05;4.75;;;;;;;9.15;32.26;99958.88;5065484;28;20091;-72
2022/03/24 04:34:47;;;;;;;6.47;4.60;;;;;;;8.95;32.22;99922.66;5065145;28;20041;-72
2022/03/24 04:37:17;;;;;;;4.95;4.40;;;;;;;9.51;32.26;100023.59;5048412;28;20048;-72
2022/03/24 04:39:48;;;;;;;5.32;4.43;;;;;;;9.52;32.34;100021.81;5065838;28;20264;-72
2022/03/24 04:42:17;;;;;;;5.55;4.88;;;;;;;9.25;32.29;99974.34;5065472;28;20256;-71
2022/03/24 04:44:47;;;;;;;6.18;4.57;;;;;;;8.03;32.32;99762.44;5065712;28;20108;-72
2022/03/24 04:47:17;;;;;;;8.00;5.57;;;;;;;9.55;32.40;100019.06;5065515;28;20037;-72
2022/03/24 04:49:47;;;;;;;7.18;5.18;;;;;;;9.57;32.36;100030.44;5065656;28;20049;-72
2022/03/24 04:52:19;;;;;;;6.00;4.82;;;;;;;9.56;32.43;100021.63;5065662;28;20052;-72
2022/03/24 04:54:50;;;;;;;7.32;4.65;;;;;;;9.57;32.31;100025.16;5065842;28;20041;-71
2022/03/24 04:57:18;;;;;;;8.30;4.85;;;;;;;9.59;32.37;100025.94;5065379;28;20056;-72
2022/03/24 04:59:49;;;;;;;7.18;4.25;;;;;;;9.63;32.26;100025.75;5065530;28;20069;-71
2022/03/24 05:02:19;;;;;;;8.52;5.50;;;;;;;9.31;32.28;99976.75;5077582;28;20087;-71
2022/03/24 05:04:48;;;;;;;5.35;4.55;;;;;;;9.56;32.35;100023.41;5085784;28;20041;-70
2022/03/24 05:07:18;;;;;;;5.43;4.10;;;;;;;9.55;32.50;100029.63;5085117;28;20040;-71
2022/03/24 05:09:50;;;;;;;7.57;4.63;;;;;;;9.24;32.47;99971.78;5068069;28;20044;-72
2022/03/24 05:12:18;;;;;;;7.40;4.63;;;;;;;9.57;32.55;100026.00;5068220;28;20115;-71
2022/03/24 05:14:50;;;;;;;5.65;4.25;;;;;;;9.59;32.46;100029.44;5071992;28;20103;-73
2022/03/24 05:17:18;;;;;;;7.07;4.22;;;;;;;9.61;32.52;100035.53;5071749;28;20036;-72
2022/03/24 05:19:49;;;;;;;7.00;4.65;;;;;;;9.58;32.50;100025.09;5088912;28;20284;-72
2022/03/24 05:22:19;;;;;;;8.13;6.20;;;;;;;9.66;32.49;100027.41;5071358;28;20040;-72
2022/03/24 05:24:50;;;;;;;6.80;4.57;;;;;;;9.68;32.48;100030.00;5088834;28;20064;-73
2022/03/24 05:27:20;;;;;;;6.28;4.40;;;;;;;9.69;32.41;100027.28;5089255;28;20100;-72
2022/03/24 05:29:49;;;;;;;8.63;4.53;;;;;;;9.37;32.32;99966.84;5088749;28;20040;-72
2022/03/24 05:32:20;;;;;;;6.05;4.80;;;;;;;9.42;32.41;99976.34;5088719;28;20066;-72
2022/03/24 05:34:50;;;;;;;7.25;5.40;;;;;;;9.84;32.12;100034.59;5088729;28;20259;-72
2022/03/24 05:37:20;;;;;;;7.43;5.28;;;;;;;9.89;32.00;100029.97;5089048;28;20047;-72
2022/03/24 05:39:51;;;;;;;6.57;5.00;;;;;;;9.58;31.88;99980.09;5088767;28;20043;-72
2022/03/24 05:42:20;;;;;;;8.10;5.38;;;;;;;9.60;32.22;99980.03;5088416;28;20099;-72
2022/03/24 05:44:50;;;;;;;7.93;5.72;;;;;;;9.60;32.21;99980.91;5088645;28;20078;-72
2022/03/24 05:47:20;;;;;;;9.75;5.60;;;;;;;9.90;32.19;100034.34;5070870;28;20060;-72
2022/03/24 05:49:51;;;;;;;9.65;6.35;;;;;;;9.98;32.01;100036.69;5071053;28;20068;-72
2022/03/24 05:52:21;;;;;;;10.88;5.95;;;;;;;10.39;31.58;100039.34;5088290;28;20071;-71
2022/03/24 05:54:52;;;;;;;6.65;4.38;;;;;;;11.30;30.36;100035.19;5088403;28;20029;-72
2022/03/24 05:57:21;;;;;;;9.60;5.40;;;;;;;11.61;29.15;99932.84;5088210;28;20032;-72
2022/03/24 05:59:51;;;;;;;9.35;6.20;;;;;;;13.15;28.01;100030.16;5088670;28;20070;-72
2022/03/24 06:02:21;;;;;;;9.90;7.35;;;;;;;13.99;27.55;100028.06;5087980;28;20060;-72
2022/03/24 06:04:53;;;;;;;10.00;6.50;;;;;;;14.81;26.67;100030.28;5088100;28;20033;-72
2022/03/24 06:07:21;;;;;;;13.57;9.18;;;;;;;14.94;26.27;99958.31;5088067;28;20051;-72
2022/03/24 06:09:54;;;;;;;15.98;10.55;;;;;;;15.75;25.53;99979.75;5088375;28;20086;-72
2022/03/24 06:12:23;;;;;;;12.13;9.00;;;;;;;16.61;24.98;100023.75;5086789;28;20080;-72
2022/03/24 06:14:52;;;;;;;12.13;8.45;;;;;;;16.22;25.65;100030.03;5087910;28;20040;-72
2022/03/24 06:17:22;;;;;;;16.20;7.82;;;;;;;15.94;26.09;100031.88;5070656;28;20024;-73
2022/03/24 06:19:53;;;;;;;7.00;5.13;;;;;;;15.85;26.04;100026.28;5070272;28;20203;-72
2022/03/24 06:22:22;;;;;;;11.45;6.82;;;;;;;16.29;25.74;99999.22;5054061;28;20235;-72
2022/03/24 06:24:54;;;;;;;10.80;7.22;;;;;;;17.11;24.77;100012.19;5069631;28;20106;-72
2022/03/24 06:27:22;;;;;;;7.93;5.95;;;;;;;17.70;24.22;99965.97;5087804;28;20049;-72
2022/03/24 06:29:54;;;;;;;8.35;5.57;;;;;;;18.38;23.35;99900.81;5070470;28;20071;-73
2022/03/24 06:32:24;;;;;;;8.82;6.93;;;;;;;19.61;22.61;99995.59;5070025;28;20062;-73
2022/03/24 06:34:54;;;;;;;6.70;4.57;;;;;;;19.41;22.32;99997.25;5087535;28;20044;-73
2022/03/24 06:37:26;;;;;;;6.60;4.70;;;;;;;18.73;23.05;100008.13;5087506;28;20037;-73
2022/03/24 06:39:56;;;;;;;7.20;4.80;;;;;;;17.60;24.27;99968.44;5087354;28;20090;-73
2022/03/24 06:42:25;;;;;;;6.85;5.10;;;;;;;16.80;25.77;99969.84;5087639;28;20045;-72
2022/03/24 06:44:55;;;;;;;6.60;4.75;;;;;;;16.36;26.23;100009.41;5087655;28;20032;-73
2022/03/24 06:47:25;;;;;;;11.93;5.68;;;;;;;15.94;27.22;100034.56;5087390;28;20049;-72
2022/03/24 06:49:55;;;;;;;7.30;5.13;;;;;;;15.45;27.63;100036.88;5087388;28;20296;-73
2022/03/24 06:52:25;;;;;;;7.70;5.45;;;;;;;15.13;28.25;100048.75;5087572;28;20037;-73
2022/03/24 06:54:57;;;;;;;8.30;5.88;;;;;;;14.89;28.45;100051.16;5087134;28;20052;-72
2022/03/24 06:57:26;;;;;;;5.53;4.50;;;;;;;14.20;28.96;99953.94;5069670;28;20083;-72
2022/03/24 06:59:55;;;;;;;10.20;4.65;;;;;;;14.70;28.88;100043.41;5070665;28;20033;-72
2022/03/24 07:02:26;;;;;;;7.97;5.45;;;;;;;14.74;28.84;100037.81;5091486;28;20079;-72
2022/03/24 07:04:56;;;;;;;7.43;4.88;;;;;;;10.19;28.92;99262.34;5094792;28;20040;-72
2022/03/24 07:07:26;;;;;;;5.07;4.47;;;;;;;14.84;28.76;100042.56;5092664;28;20039;-72
2022/03/24 07:09:57;;;;;;;6.57;3.92;;;;;;;14.92;28.35;100038.47;5081883;28;20104;-72
2022/03/24 07:12:26;;;;;;;8.32;5.82;;;;;;;14.97;28.05;100039.03;5092484;28;20040;-72
2022/03/24 07:14:56;;;;;;;6.38;4.72;;;;;;;15.09;27.78;100040.09;5088701;28;20304;-73
2022/03/24 07:17:26;;;;;;;6.47;4.15;;;;;;;15.22;27.96;100048.19;5086548;28;20288;-73
2022/03/24 07:19:57;;;;;;;6.20;5.15;;;;;;;15.30;27.87;100046.75;5069431;28;20100;-72
2022/03/24 07:22:32;;;;;;;7.63;4.35;;;;;;;15.33;26.60;100043.88;5052929;28;20103;-72
2022/03/24 07:25:05;;;;;;;6.45;4.65;;;;;;;15.37;26.66;100045.38;5086371;28;20048;-72
2022/03/24 07:27:38;;;;;;;6.40;5.45;;;;;;;14.30;27.05;99876.94;5086477;28;20040;-71
2022/03/24 07:30:12;;;;;;;7.68;4.78;;;;;;;15.40;27.22;100047.88;5086000;28;20310;-71
2022/03/24 07:32:44;;;;;;;6.20;5.15;;;;;;;15.53;26.75;100047.94;5068844;28;20090;-72
2022/03/24 07:35:19;;;;;;;9.32;6.18;;;;;;;15.68;26.57;100080.84;5086067;28;20040;-72
2022/03/24 07:37:53;;;;;;;9.23;5.68;;;;;;;13.74;26.61;99689.47;5086295;28;20067;-72
2022/03/24 07:40:26;;;;;;;7.40;6.07;;;;;;;15.82;26.09;100053.22;5086039;28;20083;-72
2022/03/24 07:42:59;;;;;;;6.47;5.27;;;;;;;15.82;26.55;100039.88;5068611;28;20292;-72
2022/03/24 07:45:37;;;;;;;6.63;5.70;;;;;;;15.75;26.17;100046.56;5086176;28;20292;-72
2022/03/24 07:48:12;;;;;;;8.57;5.18;;;;;;;15.88;26.17;100056.34;5086143;28;20079;-71
2022/03/24 07:50:48;;;;;;;8.40;5.43;;;;;;;16.25;26.40;100051.22;5085785;28;20044;-71
2022/03/24 07:53:39;;;;;;;7.97;5.40;;;;;;;16.47;25.55;100053.28;5086042;28;20103;-72
2022/03/24 07:56:12;;;;;;;7.03;5.18;;;;;;;16.70;25.49;100044.56;5086025;28;20044;-72
2022/03/24 07:58:45;;;;;;;8.43;6.45;;;;;;;15.69;26.03;99858.09;5086010;28;20036;-72
2022/03/24 08:01:26;;;;;;;14.02;6.47;;;;;;;16.84;24.72;100054.31;5065108;28;20064;-72
2022/03/24 08:04:02;;;;;;;7.00;5.10;;;;;;;17.03;24.93;100061.91;5065328;28;20056;-72
2022/03/24 08:06:36;;;;;;;7.10;5.65;;;;;;;16.87;25.17;100065.66;5065627;28;20139;-72
2022/03/24 08:09:08;;;;;;;7.90;5.53;;;;;;;17.13;25.09;100044.22;5065859;28;20086;-72
2022/03/24 08:11:42;;;;;;;8.00;6.20;;;;;;;16.99;24.61;100040.72;5065815;28;20037;-72
2022/03/24 08:14:14;;;;;;;7.88;6.18;;;;;;;16.95;24.51;100049.06;5065420;28;20045;-72
2022/03/24 08:16:46;;;;;;;7.30;5.75;;;;;;;17.00;24.80;100053.13;5065723;28;20087;-72
2022/03/24 08:19:19;;;;;;;7.55;5.45;;;;;;;16.70;24.21;100004.41;5065759;28;20037;-73
2022/03/24 08:21:52;;;;;;;7.97;5.50;;;;;;;16.42;24.45;99932.38;5064515;28;20048;-72
2022/03/24 08:24:25;;;;;;;7.00;5.40;;;;;;;16.31;24.33;99917.06;5065671;28;20071;-72
2022/03/24 08:26:59;;;;;;;7.15;5.70;;;;;;;17.17;24.37;100049.25;5064753;28;20297;-72
2022/03/24 08:29:32;;;;;;;6.88;6.10;;;;;;;17.23;24.61;100069.41;5065383;28;20039;-72
2022/03/24 08:32:05;;;;;;;11.07;6.15;;;;;;;17.52;24.50;100052.09;5048525;28;20223;-71
2022/03/24 08:34:38;;;;;;;7.07;6.05;;;;;;;14.43;23.70;99508.06;5064677;28;20041;-72
2022/03/24 08:37:10;;;;;;;9.55;7.32;;;;;;;17.58;23.49;100048.97;5065204;28;20200;-71
2022/03/24 08:39:44;;;;;;;7.68;6.10;;;;;;;17.58;23.81;100038.25;5065563;28;20041;-71
2022/03/24 08:42:18;;;;;;;11.23;5.82;;;;;;;17.72;23.95;100042.63;5065399;28;20067;-71
2022/03/24 08:44:50;;;;;;;8.77;6.13;;;;;;;17.80;23.69;100044.75;5064335;28;20041;-72
2022/03/24 08:47:23;;;;;;;7.55;6.32;;;;;;;17.83;23.77;100049.88;5066001;28;20143;-72
2022/03/24 08:49:55;;;;;;;8.65;6.32;;;;;;;17.88;23.82;100053.06;5069197;28;20107;-71
2022/03/24 08:52:27;;;;;;;8.52;6.07;;;;;;;17.87;23.44;100049.53;5069213;28;20041;-72
2022/03/24 08:54:56;;;;;;;7.60;6.35;;;;;;;18.06;23.44;100045.47;5069465;28;20367;-71
2022/03/24 08:57:27;;;;;;;10.15;6.90;;;;;;;18.20;22.86;100069.44;5069698;28;20040;-72
2022/03/24 08:59:57;;;;;;;11.57;7.50;;;;;;;18.44;22.97;100042.56;5069182;28;20068;-72
2022/03/24 09:02:26;;;;;;;9.13;7.15;;;;;;;18.73;22.55;100049.25;5082019;28;20266;-72
2022/03/24 09:04:56;;;;;;;9.95;7.50;;;;;;;18.83;22.47;100039.50;5089429;28;20054;-72
2022/03/24 09:07:26;;;;;;;9.98;7.70;;;;;;;19.02;22.53;100051.47;5071338;28;20044;-72
2022/03/24 09:09:56;;;;;;;12.55;8.73;;;;;;;19.04;22.19;100045.00;5071368;28;20108;-72
2022/03/24 09:12:28;;;;;;;11.35;8.90;;;;;;;19.22;22.45;100048.06;5088730;28;20070;-72
2022/03/24 09:14:57;;;;;;;11.45;7.32;;;;;;;19.71;22.20;100036.91;5088607;28;20051;-72
2022/03/24 09:17:27;;;;;;;10.20;7.95;;;;;;;19.98;22.12;100041.00;5071716;28;20036;-72
2022/03/24 09:19:57;;;;;;;11.00;7.30;;;;;;;19.80;22.24;99962.66;5088437;28;20371;-72
2022/03/24 09:22:27;;;;;;;10.73;8.02;;;;;;;20.32;21.93;100045.28;5088798;28;20040;-71
2022/03/24 09:24:57;;;;;;;8.50;7.03;;;;;;;20.38;21.55;100044.78;5089121;28;20044;-72
2022/03/24 09:27:28;;;;;;;10.40;7.50;;;;;;;20.18;21.28;100041.03;5088550;28;20040;-71
2022/03/24 09:29:57;;;;;;;11.13;8.50;;;;;;;19.91;22.30;99994.94;5071349;28;20204;-71
2022/03/24 09:32:27;;;;;;;10.13;7.57;;;;;;;20.27;21.79;100041.28;5071270;28;20076;-71
2022/03/24 09:34:58;;;;;;;12.00;7.57;;;;;;;20.55;21.87;100042.47;5088710;28;20071;-71
2022/03/24 09:37:29;;;;;;;10.93;8.13;;;;;;;20.82;21.83;100053.56;5088457;28;20138;-72
2022/03/24 09:39:58;;;;;;;10.50;8.10;;;;;;;21.05;21.23;100036.28;5088951;28;20040;-72
2022/03/24 09:42:30;;;;;;;11.00;8.77;;;;;;;21.04;20.46;100049.88;5088416;28;20074;-72
2022/03/24 09:45:00;;;;;;;10.95;8.02;;;;;;;21.09;21.30;100040.41;5070576;28;20103;-71
2022/03/24 09:47:29;;;;;;;12.23;7.95;;;;;;;21.25;20.90;100039.91;5087600;28;20044;-70
2022/03/24 09:49:59;;;;;;;10.48;7.93;;;;;;;21.05;21.13;99995.84;5087885;28;20047;-71
2022/03/24 09:52:28;;;;;;;10.10;9.00;;;;;;;21.68;20.64;100034.22;5070600;28;20029;-71
2022/03/24 09:54:58;;;;;;;13.32;8.80;;;;;;;21.65;20.56;100028.25;5087808;28;20052;-71
2022/03/24 09:57:30;;;;;;;14.93;9.77;;;;;;;21.89;20.24;100030.56;5088081;28;20040;-71
2022/03/24 09:59:59;;;;;;;12.32;9.43;;;;;;;22.01;20.47;100030.31;5086772;28;20044;-71
2022/03/24 10:02:30;;;;;;;9.00;8.02;;;;;;;21.83;20.62;99991.50;5087452;28;20060;-71
2022/03/24 10:05:01;;;;;;;12.23;9.63;;;;;;;22.16;20.40;100021.78;5088062;28;20051;-70
2022/03/24 10:07:35;;;;;;;11.60;9.98;;;;;;;22.31;19.25;100040.09;5087528;28;20114;-71
2022/03/24 10:10:05;;;;;;;11.18;9.98;;;;;;;22.38;20.40;100027.72;5070241;28;20068;-71
2022/03/24 10:12:37;;;;;;;15.95;10.18;;;;;;;22.38;19.85;100002.56;5087465;28;20042;-71
2022/03/24 10:15:12;;;;;;;14.80;10.75;;;;;;;22.08;19.93;99963.09;5087633;28;20095;-71
2022/03/24 10:17:51;;;;;;;13.07;9.60;;;;;;;22.21;19.46;99952.00;5087669;28;20041;-71
2022/03/24 10:20:28;;;;;;;12.18;8.70;;;;;;;22.69;20.32;100025.75;5087567;28;20089;-70
2022/03/24 10:23:04;;;;;;;11.07;9.48;;;;;;;22.84;19.29;100017.19;5087420;28;20084;-71
2022/03/24 10:25:39;;;;;;;11.57;10.07;;;;;;;22.87;19.53;100020.44;5070229;28;20040;-71
2022/03/24 10:28:15;;;;;;;14.07;9.57;;;;;;;22.93;19.31;100010.91;5069528;28;20056;-71
2022/03/24 10:30:49;;;;;;;11.55;9.52;;;;;;;22.47;19.15;99966.63;5069507;28;20059;-71
2022/03/24 10:33:30;;;;;;;13.65;10.50;;;;;;;22.83;18.01;100010.06;5069648;28;20051;-71
2022/03/24 10:36:09;;;;;;;11.52;10.32;;;;;;;22.87;18.90;100011.47;5086793;28;20041;-70
2022/03/24 10:38:44;;;;;;;12.25;10.23;;;;;;;22.73;19.50;99967.72;5086795;28;20052;-70
2022/03/24 10:41:17;;;;;;;;;;;;;;;22.96;18.18;100008.75;5087571;28;20044;-70
2022/03/24 10:43:52;;;;;;;12.20;10.07;;;;;;;23.02;18.99;100005.44;5087088;28;20111;-70
2022/03/24 10:46:27;;;;;;;12.10;10.63;;;;;;;22.84;19.15;99960.44;5069541;28;20044;-70
2022/03/24 10:49:14;;;;;;;11.93;9.05;;;;;;;23.29;19.30;100003.78;5069882;28;20040;-70
2022/03/24 10:51:48;;;;;;;11.65;9.93;;;;;;;22.49;19.33;99886.31;5087410;28;20067;-72
2022/03/24 10:54:30;;;;;;;19.70;13.52;;;;;;;23.24;19.04;100006.91;5053347;28;20041;-70
2022/03/24 10:57:05;;;;;;;13.02;10.60;;;;;;;23.08;19.26;100001.31;5086681;28;20055;-71
2022/03/24 10:59:48;;;;;;;18.15;10.95;;;;;;;23.26;18.59;100004.94;5086762;28;20050;-72
2022/03/24 11:02:23;;;;;;;13.77;10.00;;;;;;;22.10;19.16;99831.56;5086365;28;20060;-72
2022/03/24 11:04:59;;;;;;;16.50;10.88;;;;;;;23.21;18.52;100001.81;5086588;28;20040;-72
2022/03/24 11:07:31;;;;;;;11.77;10.57;;;;;;;22.95;19.09;99952.13;5086329;28;20047;-72
2022/03/24 11:10:11;;;;;;;12.88;9.68;;;;;;;22.19;17.80;99824.44;5086495;28;20036;-72
2022/03/24 11:12:44;;;;;;;14.80;10.15;;;;;;;23.31;18.80;99990.97;5086309;28;20040;-72
2022/03/24 11:15:19;;;;;;;13.55;9.93;;;;;;;23.50;18.44;99990.88;5086351;28;20052;-72
2022/03/24 11:17:53;;;;;;;13.35;10.73;;;;;;;23.50;18.69;99987.31;5086108;28;20040;-72
2022/03/24 11:20:37;;;;;;;11.60;9.82;;;;;;;23.22;17.22;99960.25;5068651;28;20318;-72
2022/03/24 11:23:19;;;;;;;10.77;9.25;;;;;;;23.25;17.40;99959.94;5085989;28;20040;-71
2022/03/24 11:25:56;;;;;;;12.23;10.38;;;;;;;23.43;18.24;99986.22;5069457;28;20102;-72
2022/03/24 11:28:28;;;;;;;14.05;10.20;;;;;;;22.29;18.40;99798.25;5068713;28;20101;-72
2022/03/24 11:31:06;;;;;;;14.77;11.18;;;;;;;22.13;17.33;99811.50;5068888;28;20036;-72
2022/03/24 11:33:41;;;;;;;15.70;11.27;;;;;;;23.07;18.31;99987.94;5086155;28;20040;-72
2022/03/24 11:36:16;;;;;;;12.63;10.20;;;;;;;23.00;18.18;99939.88;5068742;28;20047;-71
2022/03/24 11:38:51;;;;;;;13.90;10.45;;;;;;;23.35;17.98;99977.00;5085665;28;20046;-72
2022/03/24 11:41:27;;;;;;;11.38;9.93;;;;;;;23.29;17.81;99982.16;5085556;28;20315;-72
2022/03/24 11:44:08;;;;;;;16.02;10.75;;;;;;;23.31;17.85;99970.19;5085417;28;20044;-72
2022/03/24 11:46:47;;;;;;;13.48;11.90;;;;;;;23.43;17.71;99973.53;5085747;28;20044;-72
2022/03/24 11:49:22;;;;;;;15.45;12.30;;;;;;;23.34;17.91;99969.88;5085248;28;20293;-72